A- A+ FrançaisEnglishEspañol中国

Services sur Internet Soldes sur Internet Des idées de cadeaux Météo Météo aéro

La météo à : Autours de vous Tarbes-Lourdes-PyrénéesPontoise-Cormeilles-En-VexinBrest-Guipavas Montpellier-Frejorgues

manche à air

La météo aéronautique pour les pilotes, la préparation du vol avec les METAR (METeorological Aerodrome Report, message d'observation des conditions météorologiques pour l'aviation) et Les TAF (Terminal Aerodrome Forecast : message de prévision à court terme des conditions météorologiques pour l'aviation). Et les autres ressources comme les VAC (Visual Approch Chart) et les NOTAM (Notice To Airman) pour préprer les vols.

Aéroport Enontekio (Finlande) / OACI EFET/ IATA ENF

L'altitude de l'aéroport Enontekio est de 306 m = 1004 ft. Il est situé à proximité de Enontekio (Finlande). La météo générale à 5 jours est disponible pour Enontekioe situé à 8.9 km.

METAR de l'aéroport Enontekio - EFET

EFET 110820Z AUTO 15014G26KT 120V190 3900 -SN OVC019 M07/M09 Q0991

Décodage du METAR de l'aéroport Enontekio (FI)

METAR émis par EFET le mercredi 11 décembre 2019 à 08:20 heure TU. C'est un METAR généré automatiquement, il y a 19 minutes.

La visibilité est de 3.9 km = 2.4 sm.

La température est de -7°C = 19 °F et le point rosée est de -9°C = 16 °F . Ce qui correspond à 86% d'humidité relative.

Le QNH est de 991 hPa = 29.26 inHg

Vent de 14 kt = 26 km/h avec des rafales à 26 kt = 48 km/h, orienté à 150°.

Nuages : Couverture nuageuse soudée à 1900 ft = 580 mètres.

-SN

TAF de l'aéroport Enontekio - EFET

EFET 101130Z 1012/1015 20005KT CAVOK

EFET 101130Z 1012/1015 20005KT visibilité supérieure à 10km, aucun nuage à une hauteur inférieure à 5000 ft ou sous l'altitude minimale de secteur et aucun cumulonimbus ou cumulus bourgeonnant, quelle que soit leur altitude

Aéroport à proximité de Enontekio

Météo générale à 5 jours à Enontekioe (8.9 km)Aéroport Kautokeino (77 km)Aéroport Aavahelukka (87 km)Aéroport Kittila (94 km)Aéroport Pokka (102 km)Aéroport Pajala (125 km)Aéroport Kiruna (141 km)

VAC de l'aéroport Enontekio - EFET

La carte d'approche à vue (VAC Visual Approah Chart) est fournie sans aucune garantie de son actualité. Le pilote est le seul responsable de la vérification de sa validité avant de l'utiliser opérationnellement pour préparer un vol ou l'utiliser lors de sa navigation.

VAC de EFET

Vue aérienne de l'aéroport Enontekio

NOTAM de l'aéroport Enontekio

Les NOTAM sont fournis sans aucune garantie de leur actualité. Le pilote est le seul responsable de la vérification de sa validité avant de l'utiliser opérationnellement pour préparer un vol ou l'utiliser lors de sa navigation.

Pas de NOTAM

Sources des données